sensor_id;sensor_type;location;lat;lon;timestamp;pressure;altitude;pressure_sealevel;temperature;humidity
59043;BME280;44826;51.596;5.624;2023-03-01T00:00:26;103044.31;;;-1.72;63.58
59043;BME280;44826;51.596;5.624;2023-03-01T00:02:51;103044.03;;;-1.77;63.90
59043;BME280;44826;51.596;5.624;2023-03-01T00:05:16;103043.00;;;-1.80;63.82
59043;BME280;44826;51.596;5.624;2023-03-01T00:07:41;103042.09;;;-1.81;63.75
59043;BME280;44826;51.596;5.624;2023-03-01T00:10:07;103047.91;;;-1.84;64.75
59043;BME280;44826;51.596;5.624;2023-03-01T00:12:33;103041.69;;;-1.87;64.43
59043;BME280;44826;51.596;5.624;2023-03-01T00:14:58;103049.28;;;-1.89;65.11
59043;BME280;44826;51.596;5.624;2023-03-01T00:17:23;103036.59;;;-1.87;64.92
59043;BME280;44826;51.596;5.624;2023-03-01T00:19:49;103039.97;;;-1.88;65.37
59043;BME280;44826;51.596;5.624;2023-03-01T00:22:14;103041.69;;;-1.87;65.08
59043;BME280;44826;51.596;5.624;2023-03-01T00:24:39;103045.06;;;-1.88;65.03
59043;BME280;44826;51.596;5.624;2023-03-01T00:27:04;103053.50;;;-1.89;65.03
59043;BME280;44826;51.596;5.624;2023-03-01T00:29:30;103044.88;;;-1.91;64.77
59043;BME280;44826;51.596;5.624;2023-03-01T00:31:55;103043.13;;;-1.92;64.29
59043;BME280;44826;51.596;5.624;2023-03-01T00:34:20;103038.69;;;-1.95;64.57
59043;BME280;44826;51.596;5.624;2023-03-01T00:36:46;103037.81;;;-1.95;65.07
59043;BME280;44826;51.596;5.624;2023-03-01T00:39:14;103039.47;;;-1.96;64.88
59043;BME280;44826;51.596;5.624;2023-03-01T00:41:39;103048.72;;;-1.98;65.02
59043;BME280;44826;51.596;5.624;2023-03-01T00:44:05;103040.97;;;-2.00;65.32
59043;BME280;44826;51.596;5.624;2023-03-01T00:46:30;103038.13;;;-2.04;65.47
59043;BME280;44826;51.596;5.624;2023-03-01T00:48:56;103030.19;;;-2.09;65.42
59043;BME280;44826;51.596;5.624;2023-03-01T00:51:24;103033.63;;;-2.08;66.00
59043;BME280;44826;51.596;5.624;2023-03-01T00:53:50;103026.75;;;-2.09;65.31
59043;BME280;44826;51.596;5.624;2023-03-01T00:56:16;103020.00;;;-2.09;65.32
59043;BME280;44826;51.596;5.624;2023-03-01T00:58:41;103018.22;;;-2.10;65.31
59043;BME280;44826;51.596;5.624;2023-03-01T01:03:49;103015.41;;;-2.15;65.78
59043;BME280;44826;51.596;5.624;2023-03-01T01:06:19;103018.75;;;-2.16;65.99
59043;BME280;44826;51.596;5.624;2023-03-01T01:08:45;103018.53;;;-2.19;66.13
59043;BME280;44826;51.596;5.624;2023-03-01T01:11:11;103015.81;;;-2.22;66.30
59043;BME280;44826;51.596;5.624;2023-03-01T01:13:38;103016.59;;;-2.23;66.65
59043;BME280;44826;51.596;5.624;2023-03-01T01:16:04;103008.84;;;-2.24;65.56
59043;BME280;44826;51.596;5.624;2023-03-01T01:18:29;103005.31;;;-2.26;65.93
59043;BME280;44826;51.596;5.624;2023-03-01T01:20:55;103005.13;;;-2.30;66.44
59043;BME280;44826;51.596;5.624;2023-03-01T01:23:20;102999.13;;;-2.30;65.76
59043;BME280;44826;51.596;5.624;2023-03-01T01:25:45;102994.03;;;-2.30;65.63
59043;BME280;44826;51.596;5.624;2023-03-01T01:28:10;102989.81;;;-2.30;66.33
59043;BME280;44826;51.596;5.624;2023-03-01T01:30:36;102988.06;;;-2.31;65.78
59043;BME280;44826;51.596;5.624;2023-03-01T01:33:01;102985.44;;;-2.32;66.38
59043;BME280;44826;51.596;5.624;2023-03-01T01:35:27;102977.66;;;-2.34;66.63
59043;BME280;44826;51.596;5.624;2023-03-01T01:37:52;102969.81;;;-2.37;66.73
59043;BME280;44826;51.596;5.624;2023-03-01T01:40:18;102972.38;;;-2.37;66.76
59043;BME280;44826;51.596;5.624;2023-03-01T01:42:43;102973.94;;;-2.39;67.05
59043;BME280;44826;51.596;5.624;2023-03-01T01:47:54;102970.25;;;-2.44;67.02
59043;BME280;44826;51.596;5.624;2023-03-01T01:50:20;102959.94;;;-2.46;67.43
59043;BME280;44826;51.596;5.624;2023-03-01T01:52:48;102967.50;;;-2.47;67.10
59043;BME280;44826;51.596;5.624;2023-03-01T01:55:19;102954.56;;;-2.50;66.90
59043;BME280;44826;51.596;5.624;2023-03-01T01:57:49;102962.13;;;-2.52;67.22
59043;BME280;44826;51.596;5.624;2023-03-01T02:00:21;102959.28;;;-2.56;68.38
59043;BME280;44826;51.596;5.624;2023-03-01T02:02:49;102957.34;;;-2.61;67.08
59043;BME280;44826;51.596;5.624;2023-03-01T02:05:27;102954.59;;;-2.64;68.26
59043;BME280;44826;51.596;5.624;2023-03-01T02:07:54;102947.44;;;-2.69;68.89
59043;BME280;44826;51.596;5.624;2023-03-01T02:10:22;102941.25;;;-2.73;68.49
59043;BME280;44826;51.596;5.624;2023-03-01T02:12:48;102954.59;;;-2.77;68.57
59043;BME280;44826;51.596;5.624;2023-03-01T02:15:14;102946.97;;;-2.77;68.51
59043;BME280;44826;51.596;5.624;2023-03-01T02:17:39;102956.38;;;-2.76;68.14
59043;BME280;44826;51.596;5.624;2023-03-01T02:20:34;102945.41;;;-2.75;67.98
59043;BME280;44826;51.596;5.624;2023-03-01T02:23:04;102954.81;;;-2.74;67.87
59043;BME280;44826;51.596;5.624;2023-03-01T02:25:40;102956.16;;;-2.79;67.77
59043;BME280;44826;51.596;5.624;2023-03-01T02:30:45;102945.56;;;-2.85;67.64
59043;BME280;44826;51.596;5.624;2023-03-01T02:33:31;102940.59;;;-2.84;68.18
59043;BME280;44826;51.596;5.624;2023-03-01T02:35:58;102943.16;;;-2.84;68.43
59043;BME280;44826;51.596;5.624;2023-03-01T02:38:26;102944.00;;;-2.83;68.28
59043;BME280;44826;51.596;5.624;2023-03-01T02:40:51;102943.81;;;-2.86;68.41
59043;BME280;44826;51.596;5.624;2023-03-01T02:43:19;102941.25;;;-2.86;68.99
59043;BME280;44826;51.596;5.624;2023-03-01T02:45:50;102941.38;;;-2.85;68.80
59043;BME280;44826;51.596;5.624;2023-03-01T02:48:16;102945.38;;;-2.88;68.48
59043;BME280;44826;51.596;5.624;2023-03-01T02:53:35;102947.06;;;-2.89;68.39
59043;BME280;44826;51.596;5.624;2023-03-01T02:56:05;102942.66;;;-2.92;68.34
59043;BME280;44826;51.596;5.624;2023-03-01T02:58:30;102938.34;;;-2.93;68.63
59043;BME280;44826;51.596;5.624;2023-03-01T03:00:56;102926.41;;;-2.94;68.60
59043;BME280;44826;51.596;5.624;2023-03-01T03:03:21;102933.13;;;-2.94;68.18
59043;BME280;44826;51.596;5.624;2023-03-01T03:05:47;102944.22;;;-2.94;68.82
59043;BME280;44826;51.596;5.624;2023-03-01T03:08:14;102943.03;;;-2.99;68.99
59043;BME280;44826;51.596;5.624;2023-03-01T03:10:48;102949.69;;;-3.01;68.66
59043;BME280;44826;51.596;5.624;2023-03-01T03:13:14;102944.53;;;-3.02;69.55
59043;BME280;44826;51.596;5.624;2023-03-01T03:15:40;102946.16;;;-3.03;69.32
59043;BME280;44826;51.596;5.624;2023-03-01T03:18:09;102949.50;;;-3.04;69.15
59043;BME280;44826;51.596;5.624;2023-03-01T03:20:35;102949.50;;;-3.04;69.32
59043;BME280;44826;51.596;5.624;2023-03-01T03:23:01;102940.88;;;-3.06;69.25
59043;BME280;44826;51.596;5.624;2023-03-01T03:25:27;102935.00;;;-3.05;70.06
59043;BME280;44826;51.596;5.624;2023-03-01T03:27:53;102935.97;;;-3.03;68.86
59043;BME280;44826;51.596;5.624;2023-03-01T03:30:23;102936.97;;;-3.01;69.08
59043;BME280;44826;51.596;5.624;2023-03-01T03:32:49;102937.75;;;-3.02;69.46
59043;BME280;44826;51.596;5.624;2023-03-01T03:35:19;102932.56;;;-3.03;69.23
59043;BME280;44826;51.596;5.624;2023-03-01T03:37:45;102937.38;;;-3.08;69.57
59043;BME280;44826;51.596;5.624;2023-03-01T03:40:32;102935.69;;;-3.08;69.68
59043;BME280;44826;51.596;5.624;2023-03-01T03:42:58;102938.94;;;-3.10;69.39
59043;BME280;44826;51.596;5.624;2023-03-01T03:45:23;102940.56;;;-3.11;68.92
59043;BME280;44826;51.596;5.624;2023-03-01T03:47:49;102938.72;;;-3.13;70.09
59043;BME280;44826;51.596;5.624;2023-03-01T03:50:16;102927.47;;;-3.17;70.20
59043;BME280;44826;51.596;5.624;2023-03-01T03:52:42;102928.53;;;-3.13;69.76
59043;BME280;44826;51.596;5.624;2023-03-01T03:55:09;102934.50;;;-3.13;70.25
59043;BME280;44826;51.596;5.624;2023-03-01T03:57:42;102926.78;;;-3.14;69.98
59043;BME280;44826;51.596;5.624;2023-03-01T04:00:10;102927.56;;;-3.15;69.93
59043;BME280;44826;51.596;5.624;2023-03-01T04:02:39;102928.34;;;-3.16;69.56
59043;BME280;44826;51.596;5.624;2023-03-01T04:05:06;102929.03;;;-3.19;70.43
59043;BME280;44826;51.596;5.624;2023-03-01T04:07:31;102909.44;;;-3.20;70.20
59043;BME280;44826;51.596;5.624;2023-03-01T04:09:56;102911.09;;;-3.21;69.81
59043;BME280;44826;51.596;5.624;2023-03-01T04:12:22;102908.34;;;-3.24;70.00
59043;BME280;44826;51.596;5.624;2023-03-01T04:14:48;102910.03;;;-3.24;69.94
59043;BME280;44826;51.596;5.624;2023-03-01T04:17:13;102904.06;;;-3.25;70.35
59043;BME280;44826;51.596;5.624;2023-03-01T04:19:38;102909.81;;;-3.27;69.93
59043;BME280;44826;51.596;5.624;2023-03-01T04:22:04;102910.50;;;-3.30;70.69
59043;BME280;44826;51.596;5.624;2023-03-01T04:24:35;102907.78;;;-3.33;70.62
59043;BME280;44826;51.596;5.624;2023-03-01T04:27:01;102907.78;;;-3.33;70.51
59043;BME280;44826;51.596;5.624;2023-03-01T04:29:26;102900.13;;;-3.33;70.61
59043;BME280;44826;51.596;5.624;2023-03-01T04:31:51;102897.66;;;-3.31;70.27
59043;BME280;44826;51.596;5.624;2023-03-01T04:34:18;102892.41;;;-3.34;70.50
59043;BME280;44826;51.596;5.624;2023-03-01T04:36:43;102892.28;;;-3.36;71.26
59043;BME280;44826;51.596;5.624;2023-03-01T04:39:08;102883.78;;;-3.37;70.66
59043;BME280;44826;51.596;5.624;2023-03-01T04:41:38;102887.00;;;-3.39;70.44
59043;BME280;44826;51.596;5.624;2023-03-01T04:44:08;102880.91;;;-3.41;70.88
59043;BME280;44826;51.596;5.624;2023-03-01T04:46:34;102882.50;;;-3.43;70.57
59043;BME280;44826;51.596;5.624;2023-03-01T04:49:00;102880.75;;;-3.44;71.15
59043;BME280;44826;51.596;5.624;2023-03-01T04:51:25;102875.47;;;-3.47;70.46
59043;BME280;44826;51.596;5.624;2023-03-01T04:53:51;102878.00;;;-3.47;71.07
59043;BME280;44826;51.596;5.624;2023-03-01T04:56:16;102882.09;;;-3.49;70.98
59043;BME280;44826;51.596;5.624;2023-03-01T04:58:43;102877.72;;;-3.52;71.35
59043;BME280;44826;51.596;5.624;2023-03-01T05:01:16;102881.03;;;-3.53;70.73
59043;BME280;44826;51.596;5.624;2023-03-01T05:03:46;102886.00;;;-3.55;71.34
59043;BME280;44826;51.596;5.624;2023-03-01T05:06:12;102882.59;;;-3.55;71.10
59043;BME280;44826;51.596;5.624;2023-03-01T05:08:39;102882.47;;;-3.57;70.86
59043;BME280;44826;51.596;5.624;2023-03-01T05:11:04;102878.97;;;-3.59;70.62
59043;BME280;44826;51.596;5.624;2023-03-01T05:13:31;102879.75;;;-3.60;71.42
59043;BME280;44826;51.596;5.624;2023-03-01T05:15:58;102875.31;;;-3.62;71.32
59043;BME280;44826;51.596;5.624;2023-03-01T05:18:25;102874.47;;;-3.63;71.55
59043;BME280;44826;51.596;5.624;2023-03-01T05:20:52;102877.78;;;-3.64;71.63
59043;BME280;44826;51.596;5.624;2023-03-01T05:23:17;102860.75;;;-3.65;71.54
59043;BME280;44826;51.596;5.624;2023-03-01T05:25:43;102860.75;;;-3.65;71.98
59043;BME280;44826;51.596;5.624;2023-03-01T05:28:11;102855.66;;;-3.65;71.63
59043;BME280;44826;51.596;5.624;2023-03-01T05:30:36;102856.44;;;-3.66;71.58
59043;BME280;44826;51.596;5.624;2023-03-01T05:33:04;102853.81;;;-3.68;71.84
59043;BME280;44826;51.596;5.624;2023-03-01T05:35:32;102847.91;;;-3.67;71.75
59043;BME280;44826;51.596;5.624;2023-03-01T05:37:58;102843.72;;;-3.66;71.52
59043;BME280;44826;51.596;5.624;2023-03-01T05:40:23;102848.13;;;-3.63;71.59
59043;BME280;44826;51.596;5.624;2023-03-01T05:42:55;102838.84;;;-3.63;71.91
59043;BME280;44826;51.596;5.624;2023-03-01T05:45:21;102842.94;;;-3.65;72.15
59043;BME280;44826;51.596;5.624;2023-03-01T05:47:48;102834.34;;;-3.67;72.34
59043;BME280;44826;51.596;5.624;2023-03-01T05:50:22;102840.97;;;-3.69;72.07
59043;BME280;44826;51.596;5.624;2023-03-01T05:52:51;102834.91;;;-3.71;72.38
59043;BME280;44826;51.596;5.624;2023-03-01T05:55:19;102833.25;;;-3.71;72.11
59043;BME280;44826;51.596;5.624;2023-03-01T05:57:45;102838.22;;;-3.72;72.23
59043;BME280;44826;51.596;5.624;2023-03-01T06:00:12;102841.53;;;-3.73;72.20
59043;BME280;44826;51.596;5.624;2023-03-01T06:02:38;102841.53;;;-3.73;72.56
59043;BME280;44826;51.596;5.624;2023-03-01T06:05:05;102847.41;;;-3.74;72.57
59043;BME280;44826;51.596;5.624;2023-03-01T06:07:31;102843.09;;;-3.75;71.99
59043;BME280;44826;51.596;5.624;2023-03-01T06:09:56;102853.28;;;-3.75;72.48
59043;BME280;44826;51.596;5.624;2023-03-01T06:12:21;102842.25;;;-3.76;72.66
59043;BME280;44826;51.596;5.624;2023-03-01T06:14:46;102840.69;;;-3.74;72.17
59043;BME280;44826;51.596;5.624;2023-03-01T06:17:15;102842.16;;;-3.77;72.38
59043;BME280;44826;51.596;5.624;2023-03-01T06:19:40;102844.69;;;-3.77;72.71
59043;BME280;44826;51.596;5.624;2023-03-01T06:22:05;102845.34;;;-3.80;72.46
59043;BME280;44826;51.596;5.624;2023-03-01T06:24:31;102837.63;;;-3.82;72.04
59043;BME280;44826;51.596;5.624;2023-03-01T06:26:56;102846.81;;;-3.84;72.74
59043;BME280;44826;51.596;5.624;2023-03-01T06:29:22;102847.59;;;-3.85;72.65
59043;BME280;44826;51.596;5.624;2023-03-01T06:31:48;102844.06;;;-3.87;72.77
59043;BME280;44826;51.596;5.624;2023-03-01T06:34:14;102840.75;;;-3.86;72.51
59043;BME280;44826;51.596;5.624;2023-03-01T06:36:40;102843.22;;;-3.87;72.51
59043;BME280;44826;51.596;5.624;2023-03-01T06:39:06;102849.94;;;-3.88;72.64
59043;BME280;44826;51.596;5.624;2023-03-01T06:41:32;102844.97;;;-3.86;72.96
59043;BME280;44826;51.596;5.624;2023-03-01T06:43:58;102845.16;;;-3.83;72.78
59043;BME280;44826;51.596;5.624;2023-03-01T06:46:23;102849.56;;;-3.81;73.18
59043;BME280;44826;51.596;5.624;2023-03-01T06:48:49;102853.09;;;-3.78;72.88
59043;BME280;44826;51.596;5.624;2023-03-01T06:51:14;102851.56;;;-3.76;73.00
59043;BME280;44826;51.596;5.624;2023-03-01T06:53:39;102854.19;;;-3.75;72.77
59043;BME280;44826;51.596;5.624;2023-03-01T06:56:05;102845.97;;;-3.71;72.74
59043;BME280;44826;51.596;5.624;2023-03-01T06:58:30;102841.88;;;-3.69;72.66
59043;BME280;44826;51.596;5.624;2023-03-01T07:00:56;102836.88;;;-3.67;72.81
59043;BME280;44826;51.596;5.624;2023-03-01T07:03:21;102827.56;;;-3.67;72.52
59043;BME280;44826;51.596;5.624;2023-03-01T07:05:51;102827.56;;;-3.67;73.12
59043;BME280;44826;51.596;5.624;2023-03-01T07:08:19;102831.88;;;-3.66;73.13
59043;BME280;44826;51.596;5.624;2023-03-01T07:10:45;102826.91;;;-3.64;72.98
59043;BME280;44826;51.596;5.624;2023-03-01T07:13:10;102830.50;;;-3.60;72.66
59043;BME280;44826;51.596;5.624;2023-03-01T07:15:36;102829.75;;;-3.59;73.21
59043;BME280;44826;51.596;5.624;2023-03-01T07:18:01;102835.91;;;-3.56;73.12
59043;BME280;44826;51.596;5.624;2023-03-01T07:20:26;102833.56;;;-3.53;73.27
59043;BME280;44826;51.596;5.624;2023-03-01T07:22:52;102834.75;;;-3.47;73.32
59043;BME280;44826;51.596;5.624;2023-03-01T07:25:18;102844.22;;;-3.45;73.09
59043;BME280;44826;51.596;5.624;2023-03-01T07:27:43;102842.75;;;-3.41;73.99
59043;BME280;44826;51.596;5.624;2023-03-01T07:30:09;102851.56;;;-3.36;73.60
59043;BME280;44826;51.596;5.624;2023-03-01T07:32:35;102855.38;;;-3.29;73.51
59043;BME280;44826;51.596;5.624;2023-03-01T07:35:00;102848.06;;;-3.25;73.47
59043;BME280;44826;51.596;5.624;2023-03-01T07:37:25;102860.38;;;-3.17;73.54
59043;BME280;44826;51.596;5.624;2023-03-01T07:39:51;102862.53;;;-3.10;73.52
59043;BME280;44826;51.596;5.624;2023-03-01T07:42:16;102850.97;;;-3.05;73.82
59043;BME280;44826;51.596;5.624;2023-03-01T07:44:41;102859.09;;;-2.97;74.02
59043;BME280;44826;51.596;5.624;2023-03-01T07:47:06;102857.72;;;-2.92;74.14
59043;BME280;44826;51.596;5.624;2023-03-01T07:49:32;102851.34;;;-2.85;74.33
59043;BME280;44826;51.596;5.624;2023-03-01T07:51:57;102844.09;;;-2.79;73.95
59043;BME280;44826;51.596;5.624;2023-03-01T07:54:22;102841.91;;;-2.73;74.51
59043;BME280;44826;51.596;5.624;2023-03-01T07:56:48;102848.34;;;-2.65;74.36
59043;BME280;44826;51.596;5.624;2023-03-01T07:59:13;102850.50;;;-2.57;74.10
59043;BME280;44826;51.596;5.624;2023-03-01T08:01:38;102843.13;;;-2.53;74.61
59043;BME280;44826;51.596;5.624;2023-03-01T08:04:04;102859.75;;;-2.45;75.48
59043;BME280;44826;51.596;5.624;2023-03-01T08:06:33;102855.13;;;-2.37;74.51
59043;BME280;44826;51.596;5.624;2023-03-01T08:08:59;102855.56;;;-2.29;74.23
59043;BME280;44826;51.596;5.624;2023-03-01T08:11:24;102850.94;;;-2.21;74.40
59043;BME280;44826;51.596;5.624;2023-03-01T08:13:49;102846.31;;;-2.14;74.25
59043;BME280;44826;51.596;5.624;2023-03-01T08:16:15;102849.22;;;-2.07;73.91
59043;BME280;44826;51.596;5.624;2023-03-01T08:18:41;102844.47;;;-2.01;73.89
59043;BME280;44826;51.596;5.624;2023-03-01T08:21:10;102847.47;;;-1.93;74.06
59043;BME280;44826;51.596;5.624;2023-03-01T08:23:36;102847.03;;;-1.86;74.07
59043;BME280;44826;51.596;5.624;2023-03-01T08:26:08;102842.28;;;-1.80;74.06
59043;BME280;44826;51.596;5.624;2023-03-01T08:28:34;102846.97;;;-1.73;73.78
59043;BME280;44826;51.596;5.624;2023-03-01T08:30:59;102843.94;;;-1.65;73.34
59043;BME280;44826;51.596;5.624;2023-03-01T08:33:25;102843.59;;;-1.57;73.19
59043;BME280;44826;51.596;5.624;2023-03-01T08:35:50;102840.59;;;-1.49;73.02
59043;BME280;44826;51.596;5.624;2023-03-01T08:38:15;102837.59;;;-1.42;72.87
59043;BME280;44826;51.596;5.624;2023-03-01T08:40:41;102833.88;;;-1.32;73.10
59043;BME280;44826;51.596;5.624;2023-03-01T08:43:06;102830.09;;;-1.24;73.58
59043;BME280;44826;51.596;5.624;2023-03-01T08:45:31;102818.44;;;-1.19;73.34
59043;BME280;44826;51.596;5.624;2023-03-01T08:47:56;102809.53;;;-1.11;72.99
59043;BME280;44826;51.596;5.624;2023-03-01T08:50:22;102812.56;;;-1.01;72.89
59043;BME280;44826;51.596;5.624;2023-03-01T08:52:49;102812.13;;;-0.94;72.52
59043;BME280;44826;51.596;5.624;2023-03-01T08:55:14;102815.97;;;-0.86;72.14
59043;BME280;44826;51.596;5.624;2023-03-01T08:57:42;102813.88;;;-0.77;72.62
59043;BME280;44826;51.596;5.624;2023-03-01T09:00:08;102819.47;;;-0.67;71.16
59043;BME280;44826;51.596;5.624;2023-03-01T09:02:33;102817.41;;;-0.58;70.43
59043;BME280;44826;51.596;5.624;2023-03-01T09:04:59;102816.13;;;-0.50;70.57
59043;BME280;44826;51.596;5.624;2023-03-01T09:07:26;102807.03;;;-0.44;71.32
59043;BME280;44826;51.596;5.624;2023-03-01T09:09:53;102804.97;;;-0.35;70.38
59043;BME280;44826;51.596;5.624;2023-03-01T09:12:19;102801.03;;;-0.28;70.80
59043;BME280;44826;51.596;5.624;2023-03-01T09:14:44;102802.22;;;-0.22;69.84
59043;BME280;44826;51.596;5.624;2023-03-01T09:17:10;102799.16;;;-0.14;69.28
59043;BME280;44826;51.596;5.624;2023-03-01T09:19:35;102797.88;;;-0.06;68.41
59043;BME280;44826;51.596;5.624;2023-03-01T09:22:00;102792.16;;;-0.01;68.94
59043;BME280;44826;51.596;5.624;2023-03-01T09:24:25;102792.47;;;0.06;68.89
59043;BME280;44826;51.596;5.624;2023-03-01T09:26:54;102796.22;;;0.12;67.54
59043;BME280;44826;51.596;5.624;2023-03-01T09:29:20;102788.81;;;0.19;68.53
59043;BME280;44826;51.596;5.624;2023-03-01T09:31:46;102793.50;;;0.27;67.44
59043;BME280;44826;51.596;5.624;2023-03-01T09:34:11;102795.41;;;0.32;67.19
59043;BME280;44826;51.596;5.624;2023-03-01T09:36:37;102789.72;;;0.37;66.98
59043;BME280;44826;51.596;5.624;2023-03-01T09:39:03;102783.13;;;0.42;66.20
59043;BME280;44826;51.596;5.624;2023-03-01T09:42:00;102783.50;;;0.50;67.91
59043;BME280;44826;51.596;5.624;2023-03-01T09:44:36;102779.53;;;0.57;67.26
59043;BME280;44826;51.596;5.624;2023-03-01T09:47:03;102778.09;;;0.62;65.76
59043;BME280;44826;51.596;5.624;2023-03-01T09:49:31;102770.56;;;0.65;66.13
59043;BME280;44826;51.596;5.624;2023-03-01T09:52:02;102763.13;;;0.71;65.94
59043;BME280;44826;51.596;5.624;2023-03-01T09:54:28;102769.34;;;0.77;66.01
59043;BME280;44826;51.596;5.624;2023-03-01T09:57:10;102764.38;;;0.80;64.41
59043;BME280;44826;51.596;5.624;2023-03-01T09:59:48;102762.91;;;0.85;64.70
59043;BME280;44826;51.596;5.624;2023-03-01T10:02:25;102763.03;;;0.88;64.71
59043;BME280;44826;51.596;5.624;2023-03-01T10:04:56;102755.56;;;0.93;64.02
59043;BME280;44826;51.596;5.624;2023-03-01T10:07:32;102748.06;;;0.97;64.89
59043;BME280;44826;51.596;5.624;2023-03-01T10:10:07;102746.59;;;1.02;65.23
59043;BME280;44826;51.596;5.624;2023-03-01T10:12:37;102738.22;;;1.06;64.65
59043;BME280;44826;51.596;5.624;2023-03-01T10:15:12;102735.94;;;1.13;65.75
59043;BME280;44826;51.596;5.624;2023-03-01T10:17:44;102725.03;;;1.17;62.00
59043;BME280;44826;51.596;5.624;2023-03-01T10:20:21;102723.50;;;1.22;62.94
59043;BME280;44826;51.596;5.624;2023-03-01T10:22:48;102717.78;;;1.28;61.78
59043;BME280;44826;51.596;5.624;2023-03-01T10:25:33;102712.03;;;1.33;61.34
59043;BME280;44826;51.596;5.624;2023-03-01T10:28:16;102708.78;;;1.38;61.35
59043;BME280;44826;51.596;5.624;2023-03-01T10:30:42;102713.19;;;1.40;61.46
59043;BME280;44826;51.596;5.624;2023-03-01T10:33:21;102702.25;;;1.44;61.49
59043;BME280;44826;51.596;5.624;2023-03-01T10:35:48;102699.78;;;1.47;60.58
59043;BME280;44826;51.596;5.624;2023-03-01T10:38:15;102703.38;;;1.51;60.91
59043;BME280;44826;51.596;5.624;2023-03-01T10:43:20;102707.25;;;1.62;62.09
59043;BME280;44826;51.596;5.624;2023-03-01T10:45:46;102703.06;;;1.64;60.20
59043;BME280;44826;51.596;5.624;2023-03-01T10:48:17;102704.97;;;1.69;59.94
59043;BME280;44826;51.596;5.624;2023-03-01T10:53:40;102704.34;;;1.74;59.27
59043;BME280;44826;51.596;5.624;2023-03-01T10:56:13;102696.81;;;1.79;60.17
59043;BME280;44826;51.596;5.624;2023-03-01T10:59:00;102698.75;;;1.85;61.04
59043;BME280;44826;51.596;5.624;2023-03-01T11:01:32;102704.94;;;1.90;59.75
59043;BME280;44826;51.596;5.624;2023-03-01T11:06:33;102707.88;;;1.99;58.85
59043;BME280;44826;51.596;5.624;2023-03-01T11:09:20;102696.88;;;2.02;60.31
59043;BME280;44826;51.596;5.624;2023-03-01T11:11:46;102708.09;;;2.04;59.04
59043;BME280;44826;51.596;5.624;2023-03-01T11:14:20;102697.03;;;2.06;58.60
59043;BME280;44826;51.596;5.624;2023-03-01T11:17:29;102701.53;;;2.12;59.94
59043;BME280;44826;51.596;5.624;2023-03-01T11:20:15;102701.66;;;2.15;58.54
59043;BME280;44826;51.596;5.624;2023-03-01T11:22:56;102702.78;;;2.22;59.37
59043;BME280;44826;51.596;5.624;2023-03-01T11:25:26;102699.56;;;2.27;58.29
59043;BME280;44826;51.596;5.624;2023-03-01T11:27:53;102693.75;;;2.32;58.79
59043;BME280;44826;51.596;5.624;2023-03-01T11:30:51;102692.31;;;2.40;59.23
59043;BME280;44826;51.596;5.624;2023-03-01T11:33:52;102682.25;;;2.45;58.92
59043;BME280;44826;51.596;5.624;2023-03-01T11:36:48;102685.84;;;2.50;57.70
59043;BME280;44826;51.596;5.624;2023-03-01T11:39:27;102680.09;;;2.55;57.89
59043;BME280;44826;51.596;5.624;2023-03-01T11:42:06;102678.69;;;2.65;57.46
59043;BME280;44826;51.596;5.624;2023-03-01T11:44:36;102682.31;;;2.70;57.14
59043;BME280;44826;51.596;5.624;2023-03-01T11:47:46;102687.06;;;2.82;58.47
59043;BME280;44826;51.596;5.624;2023-03-01T11:52:59;102679.06;;;2.99;57.82
59043;BME280;44826;51.596;5.624;2023-03-01T12:03:29;102658.31;;;3.18;55.75
59043;BME280;44826;51.596;5.624;2023-03-01T12:08:39;102647.72;;;3.35;57.02
59043;BME280;44826;51.596;5.624;2023-03-01T12:19:57;102640.41;;;3.75;55.95
59043;BME280;44826;51.596;5.624;2023-03-01T12:22:43;102639.63;;;3.77;55.43
59043;BME280;44826;51.596;5.624;2023-03-01T12:25:35;102635.63;;;3.86;55.79
59043;BME280;44826;51.596;5.624;2023-03-01T12:28:14;102630.66;;;3.92;52.56
59043;BME280;44826;51.596;5.624;2023-03-01T12:33:45;102620.00;;;4.08;54.61
59043;BME280;44826;51.596;5.624;2023-03-01T12:44:21;102613.25;;;4.43;52.46
59043;BME280;44826;51.596;5.624;2023-03-01T12:46:59;102608.34;;;4.52;53.20
59043;BME280;44826;51.596;5.624;2023-03-01T12:52:02;102608.13;;;4.75;51.84
59043;BME280;44826;51.596;5.624;2023-03-01T12:54:30;102608.44;;;4.87;51.16
59043;BME280;44826;51.596;5.624;2023-03-01T12:57:02;102607.09;;;5.01;50.89
59043;BME280;44826;51.596;5.624;2023-03-01T12:59:38;102594.50;;;5.14;54.94
59043;BME280;44826;51.596;5.624;2023-03-01T13:08:10;102578.66;;;5.72;54.15
59043;BME280;44826;51.596;5.624;2023-03-01T13:10:51;102566.69;;;5.75;50.74
59043;BME280;44826;51.596;5.624;2023-03-01T13:13:26;102563.38;;;5.81;49.50
59043;BME280;44826;51.596;5.624;2023-03-01T13:15:52;102555.66;;;5.83;48.37
59043;BME280;44826;51.596;5.624;2023-03-01T13:20:52;102552.38;;;5.90;49.89
59043;BME280;44826;51.596;5.624;2023-03-01T13:26:13;102550.09;;;6.02;49.99
59043;BME280;44826;51.596;5.624;2023-03-01T13:33:52;102527.16;;;6.64;49.75
59043;BME280;44826;51.596;5.624;2023-03-01T13:38:56;102519.91;;;6.95;47.79
59043;BME280;44826;51.596;5.624;2023-03-01T13:49:46;102491.84;;;7.86;48.15
59043;BME280;44826;51.596;5.624;2023-03-01T13:55:16;102486.38;;;8.37;46.20
59043;BME280;44826;51.596;5.624;2023-03-01T13:57:46;102478.75;;;8.50;43.89
59043;BME280;44826;51.596;5.624;2023-03-01T14:03:04;102476.00;;;8.38;44.39
59043;BME280;44826;51.596;5.624;2023-03-01T14:05:31;102472.41;;;8.25;43.47
59043;BME280;44826;51.596;5.624;2023-03-01T14:07:56;102464.47;;;8.10;43.90
59043;BME280;44826;51.596;5.624;2023-03-01T14:10:26;102468.72;;;8.01;43.90
59043;BME280;44826;51.596;5.624;2023-03-01T14:15:41;102458.81;;;7.66;45.10
59043;BME280;44826;51.596;5.624;2023-03-01T14:18:22;102459.47;;;7.51;44.85
59043;BME280;44826;51.596;5.624;2023-03-01T14:20:51;102463.53;;;7.32;44.31
59043;BME280;44826;51.596;5.624;2023-03-01T14:23:23;102450.38;;;7.17;45.43
59043;BME280;44826;51.596;5.624;2023-03-01T14:25:57;102462.19;;;6.99;45.43
59043;BME280;44826;51.596;5.624;2023-03-01T14:28:28;102466.25;;;6.83;45.31
59043;BME280;44826;51.596;5.624;2023-03-01T14:30:55;102460.88;;;6.72;44.70